• Join FlightAware (Why Join?)
  • Login
  • US Flag 
08:20PM EDT


 

Airport Tracker/Info


-or-


 

Live Flight TrackerFlight Track Log ✈ SWA1040 ✈ 27-Apr-2013 ✈ KALB - KBWI

Flight Track Log - Related Links

Times and Time Zones

All times are in EDT time to prevent confusion due to time zone crossing. See the SWA1040 flight status page for this flight to view local times or setup timezone preferences in your user account.

Time Position Orientation Groundspeed Altitude Reporting Facility
EDT Latitude Longitude Course Direction KTS MPH feet Rate Location/Type
12:29PM 42.8497 -73.8844 326° Northwest 219 252 7,700  Level Boston Center
12:30PM 42.8908 -73.9392 316° Northwest 218 251 10,700 3,060 Climbing Boston Center
12:31PM 42.8603 -74.0375 247° West 224 258 13,900 3,240 Climbing Boston Center
12:32PM 42.7764 -74.0694 196° South 236 272 17,200 2,880 Climbing Boston Center
12:33PM 42.6853 -74.0217 159° South 270 311 19,700 3,000 Climbing Boston Center
12:34PM 42.5714 -73.9681 161° South 325 374 23,200 3,180 Climbing Boston Center
12:35PM 42.4617 -73.9261 164° South 373 429 26,100 2,100 Climbing Boston Center
12:36PM 42.3486 -73.9569 191° South 392 451 27,500 840 Climbing Boston Center
12:37PM 42.2336 -73.9908 192° South 413 475 28,000 180 Climbing Boston Center
12:38PM 42.0975 -74.0322 193° South 436 502 28,000  Level Boston Center
12:39PM 41.8894 -74.0894 192° South 496 571 28,000  Level New York Center
12:40PM 41.7594 -74.1275 192° South 491 565 28,000  Level New York Center
12:41PM 41.6272 -74.1653 192° South 486 559 28,000  Level New York Center
12:42PM 41.4844 -74.2078 193° South 486 559 28,000  Level New York Center
12:43PM 41.3564 -74.2425 192° South 486 559 28,000  Level New York Center
12:44PM 41.2219 -74.2769 191° South 486 559 28,000  Level New York Center
12:45PM 41.0917 -74.3144 192° South 486 559 28,000  Level New York Center
12:46PM 40.9614 -74.3514 192° South 486 559 28,000  Level New York Center
12:47PM 40.8333 -74.3886 192° South 486 559 28,000  Level New York Center
12:48PM 40.7322 -74.4900 217° Southwest 453 521 28,000  Level New York Center
12:49PM 40.6550 -74.6197 232° Southwest 444 511 28,000 -540 Level New York Center
12:50PM 40.5758 -74.7492 231° Southwest 454 522 27,000 -1,080 Descending New York Center
12:51PM 40.5033 -74.8569 229° Southwest 462 532 25,900 -1,740 Descending New York Center
12:52PM 40.4244 -74.9667 227° Southwest 443 510 23,600 -1,980 Descending New York Center
12:53PM 40.3497 -75.0767 228° Southwest 424 488 22,000 -1,380 Descending New York Center
12:54PM 40.2772 -75.1756 226° Southwest 405 466 20,900 -1,080 Descending New York Center
12:55PM 40.2047 -75.2769 227° Southwest 392 451 19,900 -1,440 Descending New York Center
12:56PM 40.1342 -75.3728 226° Southwest 380 437 18,100 -960 Descending New York Center
12:57PM 40.0572 -75.4761 226° Southwest 365 420 18,000 -60 Descending New York Center
12:58PM 39.9975 -75.5617 228° Southwest 358 412 18,000 -240 Level New York Center
12:59PM 39.9225 -75.6619 226° Southwest 358 412 17,600 -720 Descending New York Center
01:00PM 39.8681 -75.7664 236° Southwest 358 412 16,600 -1,020 Descending New York Center
01:01PM 39.8158 -75.8681 236° Southwest 352 405 15,600 -1,560 Descending New York Center
01:03PM 39.7167 -76.0667 237° Southwest 332 382 12,100 -1,260 Descending Potomac TRACON
01:04PM 39.6500 -76.1500 224° Southwest 315 362 12,000 -420 Descending Potomac TRACON
01:05PM 39.5833 -76.2167 218° Southwest 298 343 11,300 -900 Descending Potomac TRACON
01:06PM 39.5333 -76.2833 226° Southwest 298 343 10,300 -1,200 Descending Potomac TRACON
01:07PM 39.4667 -76.3500 218° Southwest 296 341 8,900 -1,560 Descending Potomac TRACON
01:08PM 39.4000 -76.4167 218° Southwest 295 339 7,400 -1,620 Descending Potomac TRACON
01:09PM 39.3167 -76.4167 180° South 291 335 5,900 -1,380 Descending Potomac TRACON
01:10PM 39.2500 -76.4167 180° South 271 312 4,700 -960 Descending Potomac TRACON
01:11PM 39.1667 -76.4167 180° South 248 285 4,000 -360 Descending Potomac TRACON
01:12PM 39.1167 -76.4167 180° South 225 259 4,000  Level Potomac TRACON
01:13PM 39.0500 -76.4333 191° South 228 262 4,000 -60 Level Potomac TRACON
01:14PM 39.0333 -76.4833 247° West 227 261 3,900 -600 Descending Potomac TRACON
01:15PM 39.0500 -76.5667 284° West 229 264 2,900 -1,140 Descending Potomac TRACON
01:16PM 39.1000 -76.6000 333° Northwest 190 219 1,700 -1,020 Descending Potomac TRACON
01:17PM 39.1333 -76.6333 322° Northwest 147 169 900 -840 Descending Potomac TRACON
01:19PM 39.1667 -76.6667 270° West  Level FlightAware Approximate
01:26PM 39.1754 -76.6683 270° West  Level Estimated